sensor_id;sensor_type;location;lat;lon;timestamp;temperature;humidity
42615;DHT22;28754;47.700;7.924;2022-10-22T00:01:23;12.50;99.90
42615;DHT22;28754;47.700;7.924;2022-10-22T00:04:10;12.50;99.90
42615;DHT22;28754;47.700;7.924;2022-10-22T00:06:57;12.60;99.90
42615;DHT22;28754;47.700;7.924;2022-10-22T00:09:44;12.70;99.90
42615;DHT22;28754;47.700;7.924;2022-10-22T00:12:31;12.70;99.90
42615;DHT22;28754;47.700;7.924;2022-10-22T00:15:18;12.70;99.90
42615;DHT22;28754;47.700;7.924;2022-10-22T00:18:05;12.70;99.90
42615;DHT22;28754;47.700;7.924;2022-10-22T00:20:51;12.60;99.90
42615;DHT22;28754;47.700;7.924;2022-10-22T00:23:42;12.70;99.90
42615;DHT22;28754;47.700;7.924;2022-10-22T00:26:29;12.70;99.90
42615;DHT22;28754;47.700;7.924;2022-10-22T00:29:15;12.70;99.90
42615;DHT22;28754;47.700;7.924;2022-10-22T00:32:06;12.70;99.90
42615;DHT22;28754;47.700;7.924;2022-10-22T00:34:53;12.70;99.90
42615;DHT22;28754;47.700;7.924;2022-10-22T00:37:40;12.70;99.90
42615;DHT22;28754;47.700;7.924;2022-10-22T00:40:26;12.60;99.90
42615;DHT22;28754;47.700;7.924;2022-10-22T00:43:17;12.60;99.90
42615;DHT22;28754;47.700;7.924;2022-10-22T00:46:05;12.60;99.90
42615;DHT22;28754;47.700;7.924;2022-10-22T00:48:52;12.60;99.90
42615;DHT22;28754;47.700;7.924;2022-10-22T00:51:42;12.60;99.90
42615;DHT22;28754;47.700;7.924;2022-10-22T00:54:28;12.60;99.90
42615;DHT22;28754;47.700;7.924;2022-10-22T00:57:17;12.70;99.90
42615;DHT22;28754;47.700;7.924;2022-10-22T01:00:06;12.70;99.90
42615;DHT22;28754;47.700;7.924;2022-10-22T01:02:53;12.80;99.90
42615;DHT22;28754;47.700;7.924;2022-10-22T01:05:55;12.80;99.90
42615;DHT22;28754;47.700;7.924;2022-10-22T01:08:59;12.80;99.90
42615;DHT22;28754;47.700;7.924;2022-10-22T01:15:33;12.70;99.90
42615;DHT22;28754;47.700;7.924;2022-10-22T01:18:49;12.60;99.90
42615;DHT22;28754;47.700;7.924;2022-10-22T01:21:49;12.50;99.90
42615;DHT22;28754;47.700;7.924;2022-10-22T01:24:56;12.50;99.90
42615;DHT22;28754;47.700;7.924;2022-10-22T01:27:51;12.50;99.90
42615;DHT22;28754;47.700;7.924;2022-10-22T01:31:00;12.50;99.90
42615;DHT22;28754;47.700;7.924;2022-10-22T01:33:52;12.50;99.90
42615;DHT22;28754;47.700;7.924;2022-10-22T01:36:40;12.50;99.90
42615;DHT22;28754;47.700;7.924;2022-10-22T01:39:29;12.50;99.90
42615;DHT22;28754;47.700;7.924;2022-10-22T01:42:16;12.40;99.90
42615;DHT22;28754;47.700;7.924;2022-10-22T01:45:10;12.50;99.90
42615;DHT22;28754;47.700;7.924;2022-10-22T01:48:18;12.50;99.90
42615;DHT22;28754;47.700;7.924;2022-10-22T01:55:41;12.50;99.90
42615;DHT22;28754;47.700;7.924;2022-10-22T02:06:30;12.50;99.90
42615;DHT22;28754;47.700;7.924;2022-10-22T02:09:19;12.50;99.90
42615;DHT22;28754;47.700;7.924;2022-10-22T06:46:36;13.40;99.90
42615;DHT22;28754;47.700;7.924;2022-10-22T06:49:26;13.40;99.90
42615;DHT22;28754;47.700;7.924;2022-10-22T06:52:13;13.40;99.90
42615;DHT22;28754;47.700;7.924;2022-10-22T06:55:00;13.40;99.90
42615;DHT22;28754;47.700;7.924;2022-10-22T06:57:46;13.10;99.90
42615;DHT22;28754;47.700;7.924;2022-10-22T07:00:33;13.20;99.90
42615;DHT22;28754;47.700;7.924;2022-10-22T07:03:20;13.20;99.90
42615;DHT22;28754;47.700;7.924;2022-10-22T07:06:12;13.30;99.90
42615;DHT22;28754;47.700;7.924;2022-10-22T07:09:00;13.10;99.90
42615;DHT22;28754;47.700;7.924;2022-10-22T07:11:47;13.00;99.90
42615;DHT22;28754;47.700;7.924;2022-10-22T07:14:33;13.00;99.90
42615;DHT22;28754;47.700;7.924;2022-10-22T07:17:20;13.10;99.90
42615;DHT22;28754;47.700;7.924;2022-10-22T07:20:07;13.00;99.90
42615;DHT22;28754;47.700;7.924;2022-10-22T07:22:54;13.10;99.90
42615;DHT22;28754;47.700;7.924;2022-10-22T07:25:41;13.30;99.90
42615;DHT22;28754;47.700;7.924;2022-10-22T07:28:49;13.50;99.90
42615;DHT22;28754;47.700;7.924;2022-10-22T07:31:40;13.40;99.90
42615;DHT22;28754;47.700;7.924;2022-10-22T07:34:39;13.40;99.90
42615;DHT22;28754;47.700;7.924;2022-10-22T07:37:40;13.60;99.90
42615;DHT22;28754;47.700;7.924;2022-10-22T07:40:39;13.60;99.90
42615;DHT22;28754;47.700;7.924;2022-10-22T07:43:38;13.40;99.90
42615;DHT22;28754;47.700;7.924;2022-10-22T07:46:27;13.30;99.90
42615;DHT22;28754;47.700;7.924;2022-10-22T07:49:52;13.40;99.90
42615;DHT22;28754;47.700;7.924;2022-10-22T07:52:53;13.80;99.90
42615;DHT22;28754;47.700;7.924;2022-10-22T07:55:54;14.00;99.90
42615;DHT22;28754;47.700;7.924;2022-10-22T07:58:51;14.20;99.90
42615;DHT22;28754;47.700;7.924;2022-10-22T08:02:28;14.20;99.90
42615;DHT22;28754;47.700;7.924;2022-10-22T08:05:18;14.30;99.90
42615;DHT22;28754;47.700;7.924;2022-10-22T12:17:08;32.50;99.90
42615;DHT22;28754;47.700;7.924;2022-10-22T12:20:20;33.60;99.90
42615;DHT22;28754;47.700;7.924;2022-10-22T12:23:13;33.10;99.90
42615;DHT22;28754;47.700;7.924;2022-10-22T12:26:27;36.50;99.90
42615;DHT22;28754;47.700;7.924;2022-10-22T12:29:18;39.20;99.90
42615;DHT22;28754;47.700;7.924;2022-10-22T12:32:12;37.90;99.60
42615;DHT22;28754;47.700;7.924;2022-10-22T12:35:06;33.10;99.90
42615;DHT22;28754;47.700;7.924;2022-10-22T12:38:16;28.50;99.90
42615;DHT22;28754;47.700;7.924;2022-10-22T12:41:05;28.00;99.90
42615;DHT22;28754;47.700;7.924;2022-10-22T12:44:02;29.80;99.90
42615;DHT22;28754;47.700;7.924;2022-10-22T12:46:50;34.80;99.90
42615;DHT22;28754;47.700;7.924;2022-10-22T12:49:41;37.00;99.90
42615;DHT22;28754;47.700;7.924;2022-10-22T12:52:33;34.90;99.90
42615;DHT22;28754;47.700;7.924;2022-10-22T12:55:24;33.90;99.90
42615;DHT22;28754;47.700;7.924;2022-10-22T12:58:16;33.40;99.90
42615;DHT22;28754;47.700;7.924;2022-10-22T13:01:05;35.20;99.90
42615;DHT22;28754;47.700;7.924;2022-10-22T13:04:12;35.00;99.70
42615;DHT22;28754;47.700;7.924;2022-10-22T13:10:25;35.50;99.40
42615;DHT22;28754;47.700;7.924;2022-10-22T13:13:45;34.10;99.90
42615;DHT22;28754;47.700;7.924;2022-10-22T13:16:50;33.20;99.70
42615;DHT22;28754;47.700;7.924;2022-10-22T13:19:59;29.70;99.90
42615;DHT22;28754;47.700;7.924;2022-10-22T13:26:14;32.70;99.90
42615;DHT22;28754;47.700;7.924;2022-10-22T13:29:10;36.00;99.00
42615;DHT22;28754;47.700;7.924;2022-10-22T13:31:57;35.00;97.20
42615;DHT22;28754;47.700;7.924;2022-10-22T13:34:46;33.50;98.70
42615;DHT22;28754;47.700;7.924;2022-10-22T13:37:32;34.80;98.80
42615;DHT22;28754;47.700;7.924;2022-10-22T13:40:20;34.80;98.50
42615;DHT22;28754;47.700;7.924;2022-10-22T13:43:09;35.60;97.50
42615;DHT22;28754;47.700;7.924;2022-10-22T13:46:02;36.90;96.90
42615;DHT22;28754;47.700;7.924;2022-10-22T13:48:52;37.20;97.00
42615;DHT22;28754;47.700;7.924;2022-10-22T13:52:03;36.30;95.80
42615;DHT22;28754;47.700;7.924;2022-10-22T13:55:20;36.30;96.60
42615;DHT22;28754;47.700;7.924;2022-10-22T13:58:14;35.90;95.60
42615;DHT22;28754;47.700;7.924;2022-10-22T14:01:03;35.10;95.10
42615;DHT22;28754;47.700;7.924;2022-10-22T14:03:56;34.60;96.30
42615;DHT22;28754;47.700;7.924;2022-10-22T14:06:50;35.00;97.00
42615;DHT22;28754;47.700;7.924;2022-10-22T14:09:37;35.50;97.20
42615;DHT22;28754;47.700;7.924;2022-10-22T14:12:24;36.00;96.70
42615;DHT22;28754;47.700;7.924;2022-10-22T14:15:16;35.80;97.10
42615;DHT22;28754;47.700;7.924;2022-10-22T14:18:14;34.20;97.70
42615;DHT22;28754;47.700;7.924;2022-10-22T14:21:23;34.20;97.70
42615;DHT22;28754;47.700;7.924;2022-10-22T14:24:13;33.50;97.80
42615;DHT22;28754;47.700;7.924;2022-10-22T14:27:14;33.60;98.60
42615;DHT22;28754;47.700;7.924;2022-10-22T14:30:29;33.60;98.40
42615;DHT22;28754;47.700;7.924;2022-10-22T14:33:31;33.60;96.80
42615;DHT22;28754;47.700;7.924;2022-10-22T14:36:24;33.00;97.10
42615;DHT22;28754;47.700;7.924;2022-10-22T14:39:12;32.70;97.50
42615;DHT22;28754;47.700;7.924;2022-10-22T14:42:04;32.90;97.90
42615;DHT22;28754;47.700;7.924;2022-10-22T14:44:54;32.80;98.20
42615;DHT22;28754;47.700;7.924;2022-10-22T14:47:46;32.20;99.00
42615;DHT22;28754;47.700;7.924;2022-10-22T14:50:33;31.60;99.10
42615;DHT22;28754;47.700;7.924;2022-10-22T14:53:26;31.00;99.90
42615;DHT22;28754;47.700;7.924;2022-10-22T14:57:03;30.10;99.90
42615;DHT22;28754;47.700;7.924;2022-10-22T14:59:51;29.40;99.90
42615;DHT22;28754;47.700;7.924;2022-10-22T15:03:03;29.10;99.90
42615;DHT22;28754;47.700;7.924;2022-10-22T15:05:54;28.50;99.90
42615;DHT22;28754;47.700;7.924;2022-10-22T15:08:41;28.00;99.90
42615;DHT22;28754;47.700;7.924;2022-10-22T15:11:29;27.80;99.90
42615;DHT22;28754;47.700;7.924;2022-10-22T15:14:16;27.30;99.90
42615;DHT22;28754;47.700;7.924;2022-10-22T15:17:02;26.70;99.90
42615;DHT22;28754;47.700;7.924;2022-10-22T15:19:49;26.40;99.90
42615;DHT22;28754;47.700;7.924;2022-10-22T15:22:37;25.80;99.90
42615;DHT22;28754;47.700;7.924;2022-10-22T15:25:24;25.20;99.90
42615;DHT22;28754;47.700;7.924;2022-10-22T15:28:10;24.60;99.90
42615;DHT22;28754;47.700;7.924;2022-10-22T15:30:59;24.30;99.90
42615;DHT22;28754;47.700;7.924;2022-10-22T15:34:37;23.90;99.90
42615;DHT22;28754;47.700;7.924;2022-10-22T15:37:51;23.60;99.90
42615;DHT22;28754;47.700;7.924;2022-10-22T15:40:37;23.00;99.90
42615;DHT22;28754;47.700;7.924;2022-10-22T15:43:24;22.60;99.90
42615;DHT22;28754;47.700;7.924;2022-10-22T15:46:14;22.20;99.90
42615;DHT22;28754;47.700;7.924;2022-10-22T15:49:02;21.90;99.90
42615;DHT22;28754;47.700;7.924;2022-10-22T15:51:49;21.50;99.90
42615;DHT22;28754;47.700;7.924;2022-10-22T15:54:36;21.30;99.90
42615;DHT22;28754;47.700;7.924;2022-10-22T15:57:23;20.90;99.90
42615;DHT22;28754;47.700;7.924;2022-10-22T16:00:15;20.30;99.90
42615;DHT22;28754;47.700;7.924;2022-10-22T16:03:02;19.90;99.90
42615;DHT22;28754;47.700;7.924;2022-10-22T16:05:50;19.70;99.90
42615;DHT22;28754;47.700;7.924;2022-10-22T16:08:39;19.50;99.90
42615;DHT22;28754;47.700;7.924;2022-10-22T16:11:33;19.30;99.90
42615;DHT22;28754;47.700;7.924;2022-10-22T16:14:24;19.10;99.90
42615;DHT22;28754;47.700;7.924;2022-10-22T16:17:25;19.00;99.90
42615;DHT22;28754;47.700;7.924;2022-10-22T16:23:57;18.50;99.90
42615;DHT22;28754;47.700;7.924;2022-10-22T17:23:00;16.50;99.90
42615;DHT22;28754;47.700;7.924;2022-10-22T17:26:30;16.20;99.90
42615;DHT22;28754;47.700;7.924;2022-10-22T17:46:13;15.70;99.90
42615;DHT22;28754;47.700;7.924;2022-10-22T18:03:04;15.50;99.90
42615;DHT22;28754;47.700;7.924;2022-10-22T18:05:51;15.40;99.90
42615;DHT22;28754;47.700;7.924;2022-10-22T18:08:38;15.40;99.90
42615;DHT22;28754;47.700;7.924;2022-10-22T18:11:26;15.30;99.90
42615;DHT22;28754;47.700;7.924;2022-10-22T18:14:13;15.30;99.90
42615;DHT22;28754;47.700;7.924;2022-10-22T18:17:25;15.30;99.90
42615;DHT22;28754;47.700;7.924;2022-10-22T18:20:46;15.30;99.90
42615;DHT22;28754;47.700;7.924;2022-10-22T18:24:05;15.40;99.90
42615;DHT22;28754;47.700;7.924;2022-10-22T18:26:55;15.40;99.90
42615;DHT22;28754;47.700;7.924;2022-10-22T18:29:48;15.40;99.90
42615;DHT22;28754;47.700;7.924;2022-10-22T18:32:35;15.30;99.90
42615;DHT22;28754;47.700;7.924;2022-10-22T18:35:22;15.40;99.90
42615;DHT22;28754;47.700;7.924;2022-10-22T18:38:15;15.30;99.90
42615;DHT22;28754;47.700;7.924;2022-10-22T19:00:28;14.90;99.90
42615;DHT22;28754;47.700;7.924;2022-10-22T19:07:33;14.70;99.90
42615;DHT22;28754;47.700;7.924;2022-10-22T19:10:24;14.80;99.90
42615;DHT22;28754;47.700;7.924;2022-10-22T19:13:16;14.80;99.90
42615;DHT22;28754;47.700;7.924;2022-10-22T19:16:07;14.80;99.90
42615;DHT22;28754;47.700;7.924;2022-10-22T19:19:02;14.80;99.90
42615;DHT22;28754;47.700;7.924;2022-10-22T19:21:51;14.90;99.90
42615;DHT22;28754;47.700;7.924;2022-10-22T20:03:14;14.70;99.90
42615;DHT22;28754;47.700;7.924;2022-10-22T20:06:06;14.60;99.90
42615;DHT22;28754;47.700;7.924;2022-10-22T20:08:55;14.60;99.90
42615;DHT22;28754;47.700;7.924;2022-10-22T20:11:45;14.60;99.90
42615;DHT22;28754;47.700;7.924;2022-10-22T20:14:32;14.60;99.90
42615;DHT22;28754;47.700;7.924;2022-10-22T20:17:19;14.50;99.90
42615;DHT22;28754;47.700;7.924;2022-10-22T20:20:06;14.50;99.90
42615;DHT22;28754;47.700;7.924;2022-10-22T20:22:56;14.50;99.90
42615;DHT22;28754;47.700;7.924;2022-10-22T20:25:55;14.50;99.90
42615;DHT22;28754;47.700;7.924;2022-10-22T20:28:42;14.50;99.90
42615;DHT22;28754;47.700;7.924;2022-10-22T20:39:37;14.30;99.90
42615;DHT22;28754;47.700;7.924;2022-10-22T20:43:23;14.40;99.90
42615;DHT22;28754;47.700;7.924;2022-10-22T20:46:28;14.30;99.90
